Time;durP1;ratioP1;P1;durP2;ratioP2;P2;SDS_P1;SDS_P2;PMS_P1;PMS_P2;Temp;Humidity;BMP_temperature;BMP_pressure;BME280_temperature;BME280_humidity;BME280_pressure;Samples;Min_cycle;Max_cycle;Signal;HPM_P1;HPM_P2
2023/04/04 00:00:16;;;;;;;;;6.75;6.00;;;;;8.38;47.37;102198.31;4979847;28;45469;-46
2023/04/04 00:02:41;;;;;;;;;6.25;5.25;;;;;8.36;46.70;102195.75;4997421;28;46239;-48
2023/04/04 00:05:07;;;;;;;;;8.00;5.00;;;;;8.36;47.17;102198.41;4997754;28;45341;-47
2023/04/04 00:07:33;;;;;;;;;7.50;6.50;;;;;8.28;47.27;102182.13;4997196;28;45515;-48
2023/04/04 00:09:58;;;;;;;;;7.25;6.00;;;;;8.33;46.98;102192.44;4997264;28;45391;-46
2023/04/04 00:12:24;;;;;;;;;7.00;6.00;;;;;8.30;46.96;102187.31;4997154;28;46181;-47
2023/04/04 00:14:50;;;;;;;;;4.50;4.50;;;;;8.28;47.43;102191.88;4997079;28;45332;-51
2023/04/04 00:17:15;;;;;;;;;12.75;5.50;;;;;8.28;46.46;102199.84;4997320;28;45544;-46
2023/04/04 00:19:41;;;;;;;;;9.00;3.50;;;;;8.25;46.26;102193.75;4997137;28;45390;-56
2023/04/04 00:22:07;;;;;;;;;6.00;4.50;;;;;8.22;46.84;102187.84;4979124;28;47667;-53
2023/04/04 00:24:32;;;;;;;;;6.50;4.25;;;;;8.26;46.79;102192.00;4997081;28;45356;-48
2023/04/04 00:26:58;;;;;;;;;5.50;4.75;;;;;8.25;46.59;102192.91;4996769;28;45411;-47
2023/04/04 00:29:23;;;;;;;;;3.00;3.00;;;;;8.21;46.67;102192.25;4997217;28;45428;-48
2023/04/04 00:31:48;;;;;;;;;6.00;4.50;;;;;8.20;46.92;102193.22;4996881;28;46371;-58
2023/04/04 00:34:14;;;;;;;;;5.00;5.00;;;;;8.07;46.26;102175.53;4979189;28;45256;-46
2023/04/04 00:36:39;;;;;;;;;7.50;4.25;;;;;8.15;46.41;102194.44;4996993;28;45459;-46
2023/04/04 00:39:05;;;;;;;;;7.25;5.75;;;;;8.13;46.43;102194.56;4996783;28;45353;-46
2023/04/04 00:41:30;;;;;;;;;5.00;5.00;;;;;8.11;46.14;102196.44;4996525;28;46047;-47
2023/04/04 00:43:56;;;;;;;;;4.25;4.25;;;;;8.09;46.08;102194.81;4996711;28;45285;-48
2023/04/04 00:46:22;;;;;;;;;5.75;5.75;;;;;8.07;46.24;102197.56;4996695;28;45362;-50
2023/04/04 00:48:48;;;;;;;;;4.00;4.00;;;;;8.04;46.52;102192.44;4997169;28;45468;-55
2023/04/04 00:51:14;;;;;;;;;4.75;4.00;;;;;8.01;46.24;102192.66;4997966;28;46246;-49
2023/04/04 00:53:45;;;;;;;;;5.50;5.50;;;;;7.99;45.73;102187.44;4999659;28;45353;-46
2023/04/04 00:56:11;;;;;;;;;4.75;4.75;;;;;7.96;46.31;102197.38;5000234;28;45348;-47
2023/04/04 00:58:36;;;;;;;;;5.75;5.00;;;;;7.89;46.60;102185.47;5000008;28;45322;-45
2023/04/04 01:01:02;;;;;;;;;6.00;6.00;;;;;7.81;46.27;102170.03;4999772;28;45954;-46
2023/04/04 01:03:28;;;;;;;;;4.00;2.50;;;;;7.89;46.51;102181.00;4999742;28;45536;-47
2023/04/04 01:05:54;;;;;;;;;9.50;7.50;;;;;7.91;46.89;102186.22;5000431;28;45465;-46
2023/04/04 01:08:23;;;;;;;;;9.00;7.50;;;;;7.88;46.49;102178.44;4999971;28;45438;-48
2023/04/04 01:10:49;;;;;;;;;4.75;2.50;;;;;7.89;46.37;102169.56;4999490;28;45570;-54
2023/04/04 01:13:15;;;;;;;;;10.00;6.00;;;;;7.87;46.98;102174.94;4999571;28;45457;-46
2023/04/04 01:15:41;;;;;;;;;5.25;5.25;;;;;7.84;46.48;102164.56;4999636;28;45300;-46
2023/04/04 01:18:08;;;;;;;;;9.00;6.00;;;;;7.81;46.28;102177.13;4999903;28;45406;-45
2023/04/04 01:20:38;;;;;;;;;4.00;4.00;;;;;7.75;46.93;102165.97;4999386;28;46158;-47
2023/04/04 01:23:05;;;;;;;;;9.00;5.00;;;;;7.72;46.06;102168.81;4999336;28;45488;-48
2023/04/04 01:25:31;;;;;;;;;6.25;5.25;;;;;7.71;46.49;102177.69;4999549;28;45315;-46
2023/04/04 01:27:57;;;;;;;;;6.00;6.00;;;;;7.67;47.01;102170.88;4999446;28;45419;-50
2023/04/04 01:30:26;;;;;;;;;8.00;4.75;;;;;7.64;47.01;102170.22;4999209;28;46258;-46
2023/04/04 01:33:00;;;;;;;;;5.00;5.00;;;;;7.64;47.09;102176.34;4999379;28;45220;-45
2023/04/04 01:36:12;;;;;;;;;5.75;3.25;;;;;7.63;46.77;102174.66;4999537;28;45443;-55
2023/04/04 01:39:01;;;;;;;;;9.00;6.00;;;;;7.63;46.46;102182.59;4981619;28;45493;-47
2023/04/04 01:41:31;;;;;;;;;8.25;5.75;;;;;7.63;47.11;102187.06;4981307;28;45454;-47
2023/04/04 01:43:59;;;;;;;;;6.50;4.75;;;;;7.60;47.19;102182.78;4999199;28;45356;-48
2023/04/04 01:46:24;;;;;;;;;5.50;5.50;;;;;7.62;47.45;102188.81;4999239;28;45389;-48
2023/04/04 01:48:50;;;;;;;;;10.25;6.25;;;;;7.60;47.41;102184.59;4999294;28;45350;-52
2023/04/04 01:51:16;;;;;;;;;9.00;7.25;;;;;7.62;47.08;102191.47;4999282;28;45422;-57
2023/04/04 01:53:41;;;;;;;;;5.00;5.00;;;;;7.61;47.60;102187.13;4998981;28;45329;-51
2023/04/04 01:56:07;;;;;;;;;8.00;6.25;;;;;7.60;47.62;102196.03;4999339;28;45212;-45
2023/04/04 01:58:32;;;;;;;;;8.25;5.50;;;;;7.59;46.86;102189.03;4999420;28;45215;-47
2023/04/04 02:00:57;;;;;;;;;8.00;6.00;;;;;7.59;46.65;102198.78;4998806;28;46142;-46
2023/04/04 02:03:23;;;;;;;;;6.75;5.00;;;;;7.58;46.98;102191.75;4998859;28;45247;-46
2023/04/04 02:05:48;;;;;;;;;9.00;7.00;;;;;7.58;46.76;102197.03;4998999;28;45408;-46
2023/04/04 02:08:16;;;;;;;;;7.50;3.25;;;;;7.51;46.51;102180.69;4999040;28;45428;-46
2023/04/04 02:10:42;;;;;;;;;7.25;5.00;;;;;7.52;46.52;102192.13;4998593;28;46272;-47
2023/04/04 02:13:07;;;;;;;;;9.00;5.00;;;;;7.49;47.09;102186.06;4998624;28;45362;-47
2023/04/04 02:15:33;;;;;;;;;4.75;4.75;;;;;7.46;46.61;102173.03;4998975;28;45567;-46
2023/04/04 02:17:58;;;;;;;;;5.75;4.00;;;;;7.42;46.34;102181.25;4999022;28;45357;-46
2023/04/04 02:20:24;;;;;;;;;5.00;5.00;;;;;7.35;46.65;102170.16;4998656;28;46038;-45
2023/04/04 02:22:53;;;;;;;;;5.00;4.50;;;;;7.27;46.31;102172.41;4998006;28;45516;-45
2023/04/04 02:25:21;;;;;;;;;6.75;5.00;;;;;7.24;46.78;102170.78;4998678;28;45274;-48
2023/04/04 02:27:46;;;;;;;;;9.00;6.50;;;;;7.23;46.18;102166.44;4998838;28;45415;-48
2023/04/04 02:30:12;;;;;;;;;10.75;7.00;;;;;7.21;46.86;102173.63;4998620;28;45494;-49
2023/04/04 02:32:38;;;;;;;;;4.75;4.50;;;;;7.21;46.87;102170.97;4998511;28;45858;-53
2023/04/04 02:35:04;;;;;;;;;8.00;6.00;;;;;7.20;47.29;102168.41;4998637;28;45393;-45
2023/04/04 02:37:30;;;;;;;;;12.75;5.75;;;;;7.20;46.91;102177.19;4998540;28;45509;-46
2023/04/04 02:39:55;;;;;;;;;8.25;5.25;;;;;7.21;47.30;102173.63;4998272;28;45796;-54
2023/04/04 02:42:20;;;;;;;;;6.00;4.50;;;;;7.23;46.72;102173.53;4998060;28;45504;-47
2023/04/04 02:44:46;;;;;;;;;8.50;5.25;;;;;7.24;46.45;102167.28;4998518;28;45417;-45
2023/04/04 02:47:11;;;;;;;;;8.25;5.00;;;;;7.23;46.71;102166.44;4998412;28;45306;-48
2023/04/04 02:49:37;;;;;;;;;7.50;5.75;;;;;7.21;47.15;102168.31;4998063;28;46622;-46
2023/04/04 02:52:02;;;;;;;;;5.75;3.75;;;;;7.21;46.90;102162.19;4997402;28;45235;-47
2023/04/04 02:54:27;;;;;;;;;5.75;5.50;;;;;7.18;47.40;102163.19;4998085;28;45458;-46
2023/04/04 02:56:53;;;;;;;;;5.00;5.00;;;;;7.16;47.37;102153.63;4998036;28;45295;-47
2023/04/04 02:59:18;;;;;;;;;8.25;8.00;;;;;7.15;47.62;102157.22;4996945;28;46666;-45
2023/04/04 03:01:43;;;;;;;;;14.00;9.00;;;;;7.02;47.12;102141.22;4997944;28;45382;-53
2023/04/04 03:04:09;;;;;;;;;5.75;5.75;;;;;7.10;47.30;102149.56;4980581;28;45353;-46
2023/04/04 03:06:35;;;;;;;;;9.00;6.50;;;;;7.10;47.32;102157.50;4998196;28;45256;-46
2023/04/04 03:09:01;;;;;;;;;10.25;7.50;;;;;7.08;47.54;102156.75;4997332;28;45980;-49
2023/04/04 03:11:26;;;;;;;;;6.50;6.00;;;;;7.08;47.56;102156.75;4998036;28;45558;-47
2023/04/04 03:13:52;;;;;;;;;5.25;5.25;;;;;6.94;48.05;102139.03;4997350;28;45386;-47
2023/04/04 03:16:18;;;;;;;;;8.00;5.25;;;;;7.03;47.61;102150.00;4998276;28;45315;-45
2023/04/04 03:18:44;;;;;;;;;5.00;5.00;;;;;6.98;48.22;102148.47;4997639;28;45310;-47
2023/04/04 03:21:09;;;;;;;;;7.75;6.00;;;;;6.99;47.31;102151.97;4997663;28;45517;-47
2023/04/04 03:23:35;;;;;;;;;6.50;6.50;;;;;6.95;47.72;102153.09;4997722;28;45439;-46
2023/04/04 03:26:00;;;;;;;;;6.00;6.00;;;;;6.94;47.69;102151.41;4997984;28;45389;-45
2023/04/04 03:28:26;;;;;;;;;5.75;5.00;;;;;6.88;47.12;102149.13;4997579;28;46009;-46
2023/04/04 03:30:51;;;;;;;;;8.25;6.00;;;;;6.87;48.14;102156.22;4997517;28;45279;-47
2023/04/04 03:33:18;;;;;;;;;7.50;5.00;;;;;6.84;47.59;102148.44;4997801;28;45231;-46
2023/04/04 03:35:43;;;;;;;;;9.00;9.00;;;;;6.80;47.77;102154.84;4997876;28;45228;-47
2023/04/04 03:38:09;;;;;;;;;8.25;6.00;;;;;6.76;47.77;102153.31;4997391;28;46225;-48
2023/04/04 03:40:35;;;;;;;;;7.00;7.00;;;;;6.68;47.55;102145.81;4997473;28;45405;-46
2023/04/04 03:43:03;;;;;;;;;8.00;6.25;;;;;6.75;48.15;102165.69;4997274;28;45463;-46
2023/04/04 03:45:31;;;;;;;;;6.00;6.00;;;;;6.72;47.66;102157.91;4997471;28;45506;-47
2023/04/04 03:47:57;;;;;;;;;9.00;7.50;;;;;6.68;47.64;102156.38;4997313;28;46020;-46
2023/04/04 03:50:22;;;;;;;;;7.25;6.50;;;;;6.68;48.17;102161.69;4997253;28;45420;-46
2023/04/04 03:52:47;;;;;;;;;8.00;5.75;;;;;6.65;47.63;102163.63;4997739;28;45370;-46
2023/04/04 03:55:13;;;;;;;;;6.75;6.25;;;;;6.64;47.92;102169.88;4997489;28;45453;-47
2023/04/04 03:57:38;;;;;;;;;7.50;7.50;;;;;6.60;47.70;102158.59;4997171;28;46237;-46
2023/04/04 04:00:04;;;;;;;;;6.00;5.00;;;;;6.59;47.71;102164.84;4997326;28;45430;-48
2023/04/04 04:02:30;;;;;;;;;6.00;6.00;;;;;6.57;47.90;102165.84;4997381;28;45357;-47
2023/04/04 04:04:55;;;;;;;;;8.25;7.75;;;;;6.55;48.15;102159.81;4997513;28;45417;-47
2023/04/04 04:07:20;;;;;;;;;6.50;5.00;;;;;6.39;47.65;102147.44;4997044;28;45242;-46
2023/04/04 04:09:46;;;;;;;;;6.50;6.00;;;;;6.50;47.87;102165.38;4997059;28;45337;-46
2023/04/04 04:12:11;;;;;;;;;7.50;5.50;;;;;6.48;48.17;102175.16;4997080;28;45766;-47
2023/04/04 04:14:36;;;;;;;;;9.25;8.00;;;;;6.44;48.34;102178.91;4997297;28;45419;-45
2023/04/04 04:17:02;;;;;;;;;5.25;5.00;;;;;6.45;47.80;102178.00;4996898;28;48390;-48
2023/04/04 04:19:27;;;;;;;;;8.50;5.75;;;;;6.44;48.00;102185.03;4997009;28;45295;-46
2023/04/04 04:21:52;;;;;;;;;10.00;7.50;;;;;6.37;47.64;102175.75;4997139;28;45408;-46
2023/04/04 04:24:18;;;;;;;;;7.50;7.50;;;;;6.43;47.54;102187.78;4997232;28;45413;-47
2023/04/04 04:26:43;;;;;;;;;8.00;8.00;;;;;6.40;47.92;102198.50;4999044;28;45395;-46
2023/04/04 04:29:08;;;;;;;;;8.00;8.00;;;;;6.33;48.12;102198.00;5000321;28;45417;-48
2023/04/04 04:31:33;;;;;;;;;5.50;4.75;;;;;6.25;48.61;102209.00;5000320;28;47143;-46
2023/04/04 04:33:59;;;;;;;;;8.50;5.25;;;;;6.31;48.22;102215.72;5000464;28;45363;-46
2023/04/04 04:36:25;;;;;;;;;5.75;5.25;;;;;6.30;48.53;102219.31;5000295;28;46951;-47
2023/04/04 04:38:50;;;;;;;;;7.00;7.00;;;;;6.24;48.23;102217.88;4999930;28;45409;-48
2023/04/04 04:41:15;;;;;;;;;6.75;5.00;;;;;6.22;48.64;102219.72;5000072;28;45293;-48
2023/04/04 04:43:41;;;;;;;;;4.00;4.00;;;;;6.19;48.16;102211.09;5000283;28;45421;-48
2023/04/04 04:46:07;;;;;;;;;11.50;8.75;;;;;6.14;49.27;102224.56;4999945;28;46090;-48
2023/04/04 04:48:33;;;;;;;;;8.00;7.00;;;;;6.11;49.10;102216.81;5000112;28;45272;-48
2023/04/04 04:50:59;;;;;;;;;10.00;7.00;;;;;6.09;49.08;102217.81;4999844;28;45373;-53
2023/04/04 04:53:24;;;;;;;;;10.00;8.00;;;;;6.06;49.15;102220.63;5000060;28;45421;-48
2023/04/04 04:55:51;;;;;;;;;45.00;40.25;;;;;6.05;48.83;102221.56;4999636;28;45941;-47
2023/04/04 04:58:19;;;;;;;;;8.00;6.00;;;;;6.02;49.24;102217.28;4999835;28;45202;-45
2023/04/04 05:00:45;;;;;;;;;21.50;15.25;;;;;5.99;49.08;102213.03;4999587;28;45318;-46
2023/04/04 05:03:11;;;;;;;;;9.00;5.50;;;;;5.96;49.21;102212.34;4999849;28;45415;-47
2023/04/04 05:05:36;;;;;;;;;8.50;6.00;;;;;5.93;49.13;102212.50;4999806;28;45457;-48
2023/04/04 05:08:02;;;;;;;;;6.75;5.00;;;;;5.89;49.31;102210.91;4999561;28;45252;-46
2023/04/04 05:10:29;;;;;;;;;11.75;7.75;;;;;5.81;48.99;102207.81;4999576;28;45433;-49
2023/04/04 05:12:54;;;;;;;;;5.00;5.00;;;;;5.81;49.64;102210.47;4999876;28;45382;-47
2023/04/04 05:15:20;;;;;;;;;8.50;8.50;;;;;5.76;49.33;102210.69;4999293;28;45831;-47
2023/04/04 05:17:46;;;;;;;;;8.00;5.50;;;;;5.71;48.97;102207.44;4999578;28;45400;-46
2023/04/04 05:20:11;;;;;;;;;8.50;7.00;;;;;5.69;49.15;102206.69;4999459;28;45271;-48
2023/04/04 05:22:42;;;;;;;;;8.50;7.50;;;;;5.66;49.95;102201.56;4999654;28;45433;-45
2023/04/04 05:25:08;;;;;;;;;7.25;5.00;;;;;5.63;50.34;102205.19;4999247;28;47298;-49
2023/04/04 05:27:33;;;;;;;;;8.75;7.00;;;;;5.61;49.56;102199.16;4998734;28;45346;-47
2023/04/04 05:29:58;;;;;;;;;7.75;7.00;;;;;5.61;50.14;102198.31;4999393;28;45306;-48
2023/04/04 05:32:24;;;;;;;;;9.75;8.00;;;;;5.64;50.57;102198.97;4999536;28;45384;-47
2023/04/04 05:34:50;;;;;;;;;8.50;7.00;;;;;5.63;50.55;102199.06;4981377;28;47189;-46
2023/04/04 05:37:16;;;;;;;;;17.50;8.00;;;;;5.62;50.06;102198.22;4998778;28;45292;-50
2023/04/04 05:39:41;;;;;;;;;7.50;5.00;;;;;5.59;50.03;102187.81;4999212;28;45472;-49
2023/04/04 05:42:06;;;;;;;;;10.00;8.00;;;;;5.62;50.57;102192.09;4999153;28;45517;-48
2023/04/04 05:44:32;;;;;;;;;9.25;7.25;;;;;5.58;50.19;102183.47;4999044;28;46475;-52
2023/04/04 05:46:57;;;;;;;;;9.00;8.00;;;;;5.64;50.34;102190.22;4998979;28;45419;-48
2023/04/04 05:49:22;;;;;;;;;5.50;5.00;;;;;5.65;50.42;102208.63;4999298;28;45325;-47
2023/04/04 05:51:48;;;;;;;;;10.25;7.25;;;;;5.65;50.21;102205.16;4999415;28;45262;-48
2023/04/04 05:54:13;;;;;;;;;6.00;6.00;;;;;5.64;50.17;102209.53;4999121;28;45399;-49
2023/04/04 05:56:38;;;;;;;;;11.50;9.00;;;;;5.67;50.09;102221.75;4998775;28;45932;-49
2023/04/04 05:59:04;;;;;;;;;7.50;7.00;;;;;5.64;50.48;102206.91;4999151;28;45385;-46
2023/04/04 06:01:29;;;;;;;;;5.00;5.00;;;;;5.66;49.99;102217.41;4999070;28;45397;-47
2023/04/04 06:03:59;;;;;;;;;7.75;6.00;;;;;5.64;49.75;102208.69;4998589;28;45799;-48
2023/04/04 06:06:25;;;;;;;;;14.25;6.50;;;;;5.67;49.65;102221.75;4998792;28;45388;-50
2023/04/04 06:08:50;;;;;;;;;8.25;7.75;;;;;5.70;49.44;102233.00;4998843;28;45287;-49
2023/04/04 06:11:15;;;;;;;;;9.00;7.75;;;;;5.67;50.16;102224.38;4998921;28;45246;-50
2023/04/04 06:13:41;;;;;;;;;9.00;6.25;;;;;5.73;49.96;102230.22;4998703;28;45314;-47
2023/04/04 06:16:06;;;;;;;;;8.25;8.25;;;;;5.69;49.45;102220.75;4998706;28;45388;-47
2023/04/04 06:18:31;;;;;;;;;14.75;7.25;;;;;5.78;49.19;102239.69;4998654;28;45694;-48
2023/04/04 06:20:57;;;;;;;;;8.00;6.25;;;;;5.76;49.21;102240.59;4981134;28;45562;-49
2023/04/04 06:23:22;;;;;;;;;7.25;7.25;;;;;5.79;49.76;102254.59;4998525;28;48810;-53
2023/04/04 06:25:47;;;;;;;;;10.50;7.00;;;;;5.80;49.50;102251.84;4997807;28;45334;-47
2023/04/04 06:28:14;;;;;;;;;11.00;9.00;;;;;5.80;49.10;102257.13;4998718;28;45405;-50
2023/04/04 06:30:40;;;;;;;;;11.25;8.25;;;;;5.81;48.93;102258.84;4998723;28;45354;-55
2023/04/04 06:33:05;;;;;;;;;9.00;7.25;;;;;5.80;49.34;102258.94;4998250;28;46196;-49
2023/04/04 06:35:31;;;;;;;;;6.25;4.00;;;;;5.85;48.92;102265.66;4998953;28;45443;-52
2023/04/04 06:37:57;;;;;;;;;8.75;6.25;;;;;5.87;49.06;102266.47;4998489;28;45333;-49
2023/04/04 06:40:22;;;;;;;;;6.50;6.50;;;;;5.87;49.35;102260.34;4998493;28;45480;-47
2023/04/04 06:42:49;;;;;;;;;7.25;7.00;;;;;5.92;48.56;102266.25;4998062;28;46284;-50
2023/04/04 06:45:16;;;;;;;;;10.75;7.25;;;;;5.95;48.34;102271.38;4980514;28;45311;-54
2023/04/04 06:47:41;;;;;;;;;8.75;8.00;;;;;5.97;48.54;102272.16;4998036;28;45183;-46
2023/04/04 06:50:07;;;;;;;;;1.25;1.25;;;;;6.00;48.50;102277.28;4997973;28;45152;-48
2023/04/04 06:52:33;;;;;;;;;7.75;5.50;;;;;5.98;48.75;102272.09;4998106;28;46174;-51
2023/04/04 06:54:58;;;;;;;;;5.50;4.00;;;;;6.02;48.23;102278.03;4998073;28;45393;-49
2023/04/04 06:57:24;;;;;;;;;7.75;7.75;;;;;6.03;48.15;102279.78;4998150;28;45314;-47
2023/04/04 06:59:50;;;;;;;;;11.75;8.25;;;;;6.04;47.97;102275.34;4998393;28;45519;-48
2023/04/04 07:02:15;;;;;;;;;8.50;7.00;;;;;6.09;47.87;102291.81;4998008;28;47160;-47
2023/04/04 07:04:41;;;;;;;;;8.50;8.00;;;;;6.10;47.66;102289.06;4998074;28;45317;-50
2023/04/04 07:07:07;;;;;;;;;8.25;5.25;;;;;6.14;48.03;102287.97;4998133;28;45386;-48
2023/04/04 07:09:32;;;;;;;;;11.25;8.50;;;;;6.22;47.63;102296.34;4998231;28;45335;-48
2023/04/04 07:11:57;;;;;;;;;8.25;5.00;;;;;6.30;47.80;102290.66;4997539;28;46363;-49
2023/04/04 07:14:24;;;;;;;;;11.25;9.00;;;;;6.40;47.20;102285.75;4996947;28;45216;-48
2023/04/04 07:16:50;;;;;;;;;9.00;8.25;;;;;6.57;47.15;102288.31;4997557;28;45387;-49
2023/04/04 07:19:16;;;;;;;;;5.00;5.00;;;;;6.82;46.70;102287.84;4997094;28;45466;-49
2023/04/04 07:21:41;;;;;;;;;10.75;7.00;;;;;7.19;46.62;102289.28;4997573;28;46303;-52
2023/04/04 07:24:06;;;;;;;;;11.50;8.00;;;;;7.56;45.57;102283.69;4997393;28;45309;-48
2023/04/04 07:26:33;;;;;;;;;7.75;5.50;;;;;7.95;45.15;102288.41;4996719;28;45676;-50
2023/04/04 07:28:59;;;;;;;;;8.75;7.50;;;;;8.37;45.01;102286.78;4997658;28;45623;-50
2023/04/04 07:31:24;;;;;;;;;9.25;8.00;;;;;8.77;44.26;102281.66;4997154;28;47045;-47
2023/04/04 07:33:52;;;;;;;;;7.50;7.50;;;;;9.15;43.54;102276.53;4997424;28;45432;-48
2023/04/04 07:36:18;;;;;;;;;13.00;6.50;;;;;9.58;41.72;102281.66;4997432;28;45378;-52
2023/04/04 07:38:43;;;;;;;;;8.00;8.00;;;;;9.92;41.65;102273.13;4997445;28;45544;-47
2023/04/04 07:41:10;;;;;;;;;9.00;7.50;;;;;10.28;41.20;102274.22;4996655;28;45914;-48
2023/04/04 07:43:36;;;;;;;;;3.75;3.75;;;;;10.62;41.03;102271.81;4997244;28;45203;-49
2023/04/04 07:46:01;;;;;;;;;40.00;29.50;;;;;11.00;41.32;102269.06;4997216;28;45390;-51
2023/04/04 07:48:27;;;;;;;;;9.25;6.75;;;;;11.33;39.05;102271.03;4997582;28;45393;-48
2023/04/04 07:50:52;;;;;;;;;8.50;6.75;;;;;11.65;38.37;102265.97;4996268;28;46480;-48
2023/04/04 07:53:17;;;;;;;;;6.00;5.00;;;;;12.01;38.16;102266.81;4996943;28;45799;-47
2023/04/04 07:55:43;;;;;;;;;13.00;7.00;;;;;12.09;37.30;102259.03;4997175;28;45464;-48
2023/04/04 07:58:08;;;;;;;;;7.67;6.00;;;;;12.18;36.41;102258.34;4997277;28;45552;-49
2023/04/04 08:00:33;;;;;;;;;4.67;1.00;;;;;12.80;35.79;102264.13;4998927;28;46042;-50
2023/04/04 08:03:00;;;;;;;;;8.00;6.00;;;;;13.51;34.86;102259.22;5000724;28;45382;-48
2023/04/04 08:05:25;;;;;;;;;5.67;5.00;;;;;14.17;33.64;102241.88;5000644;28;45306;-47
2023/04/04 08:07:51;;;;;;;;;5.00;5.00;;;;;14.99;34.76;102256.97;5000780;28;45812;-49
2023/04/04 08:10:17;;;;;;;;;9.00;7.00;;;;;15.68;32.30;102253.38;5000509;28;45846;-50
2023/04/04 08:12:46;;;;;;;;;8.00;4.67;;;;;16.29;33.21;102252.06;5000042;28;45244;-49
2023/04/04 08:15:11;;;;;;;;;8.00;6.00;;;;;16.79;32.18;102252.56;5000474;28;45439;-48
2023/04/04 08:17:37;;;;;;;;;6.67;6.67;;;;;17.12;28.22;102243.00;5000573;28;45216;-48
2023/04/04 08:20:03;;;;;;;;;7.00;7.00;;;;;17.65;29.62;102236.72;4998766;28;46058;-49
2023/04/04 08:22:28;;;;;;;;;9.67;7.00;;;;;18.10;28.45;102230.31;4997905;28;45480;-47
2023/04/04 08:24:54;;;;;;;;;7.00;5.67;;;;;18.58;26.88;102234.25;4996454;28;45409;-48
2023/04/04 08:27:20;;;;;;;;;5.00;5.00;;;;;18.84;26.68;102233.34;4997389;28;46627;-49
2023/04/04 08:29:46;;;;;;;;;10.67;5.67;;;;;19.12;27.74;102237.44;4996714;28;47381;-50
2023/04/04 08:32:15;;;;;;;;;5.00;5.00;;;;;19.40;27.42;102240.66;4995015;28;45539;-48
2023/04/04 08:34:41;;;;;;;;;5.33;5.33;;;;;18.95;26.55;102230.31;4996651;28;45376;-49
2023/04/04 08:37:07;;;;;;;;;5.00;5.00;;;;;19.04;26.31;102239.28;4996705;28;45957;-48
2023/04/04 08:39:32;;;;;;;;;7.00;7.00;;;;;19.71;28.24;102241.88;4996579;28;46483;-49
2023/04/04 08:42:06;;;;;;;;;5.33;5.33;;;;;20.22;27.18;102237.88;4996526;28;45607;-49
2023/04/04 08:44:33;;;;;;;;;5.33;5.33;;;;;20.53;24.04;102243.38;4996859;28;45588;-50
2023/04/04 08:47:04;;;;;;;;;9.67;7.33;;;;;20.64;25.69;102237.56;4996547;28;45564;-51
2023/04/04 08:49:32;;;;;;;;;9.33;6.00;;;;;20.67;24.08;102239.91;4996442;28;45483;-49
2023/04/04 08:52:00;;;;;;;;;9.00;5.00;;;;;20.68;25.06;102243.44;4996406;28;45401;-48
2023/04/04 08:54:29;;;;;;;;;8.00;6.00;;;;;20.38;24.77;102242.38;4996671;28;45392;-54
2023/04/04 08:56:55;;;;;;;;;7.00;6.00;;;;;19.94;25.34;102251.81;4963036;28;45742;-48
2023/04/04 08:59:20;;;;;;;;;6.67;5.00;;;;;19.26;24.90;102249.44;4996126;28;45914;-47
2023/04/04 09:01:46;;;;;;;;;9.67;8.00;;;;;19.08;26.86;102256.81;4994637;28;45473;-46
2023/04/04 09:04:12;;;;;;;;;7.33;7.33;;;;;19.05;28.75;102241.00;4996730;28;45425;-51
2023/04/04 09:06:38;;;;;;;;;6.00;6.00;;;;;19.15;27.29;102256.00;4996625;28;45426;-48
2023/04/04 09:09:03;;;;;;;;;10.33;5.67;;;;;19.23;25.97;102254.31;4996051;28;46783;-48
2023/04/04 09:11:32;;;;;;;;;10.67;8.00;;;;;19.48;25.67;102257.88;4995570;28;45466;-50
2023/04/04 09:14:01;;;;;;;;;6.33;4.67;;;;;19.69;27.25;102258.25;4996881;28;45634;-47
2023/04/04 09:16:27;;;;;;;;;8.00;5.67;;;;;19.81;27.05;102251.50;4996341;28;45463;-51
2023/04/04 09:18:52;;;;;;;;;5.33;5.00;;;;;19.87;25.47;102250.78;4996061;28;45551;-48
2023/04/04 09:21:18;;;;;;;;;6.67;6.33;;;;;19.96;27.38;102237.28;4996187;28;45516;-50
2023/04/04 09:23:43;;;;;;;;;7.33;6.33;;;;;20.34;25.85;102241.88;4996151;28;45560;-51
2023/04/04 09:26:10;;;;;;;;;6.33;6.00;;;;;21.49;24.41;102252.06;4996511;28;45456;-48
2023/04/04 09:28:35;;;;;;;;;5.00;4.00;;;;;23.58;22.02;102250.63;4995849;28;46123;-48
2023/04/04 09:31:04;;;;;;;;;7.33;6.00;;;;;25.67;21.09;102242.97;4995703;28;45469;-46
2023/04/04 09:33:31;;;;;;;;;6.25;6.00;;;;;27.19;19.79;102235.34;4996282;28;45425;-46
2023/04/04 09:35:57;;;;;;;;;6.00;4.50;;;;;28.20;17.96;102242.41;4996344;28;45500;-49
2023/04/04 09:38:25;;;;;;;;;5.00;5.00;;;;;28.88;18.68;102242.19;4995722;28;46281;-49
2023/04/04 09:40:53;;;;;;;;;4.75;4.75;;;;;29.42;18.14;102231.28;4995652;28;45745;-48
2023/04/04 09:43:21;;;;;;;;;7.75;5.50;;;;;29.69;16.25;102227.03;4995683;28;45582;-49
2023/04/04 09:45:48;;;;;;;;;6.75;5.00;;;;;30.28;16.76;102218.75;4995885;28;45906;-48
2023/04/04 09:48:24;;;;;;;;;6.00;5.00;;;;;30.97;15.52;102230.56;4995771;28;46356;-51
2023/04/04 09:50:50;;;;;;;;;8.20;6.20;;;;;31.52;16.97;102224.38;4995570;28;45469;-47
2023/04/04 09:53:19;;;;;;;;;7.00;5.25;;;;;32.04;14.28;102213.03;4995480;28;45335;-46
2023/04/04 09:55:55;;;;;;;;;6.75;6.25;;;;;32.73;14.21;102214.38;4995982;28;45492;-49
2023/04/04 09:58:30;;;;;;;;;5.20;4.00;;;;;33.28;14.97;102216.84;4995173;28;46255;-49
2023/04/04 10:00:58;;;;;;;;;6.00;6.00;;;;;33.84;12.64;102213.69;4995386;28;45473;-49
2023/04/04 10:03:25;;;;;;;;;5.00;3.80;;;;;34.31;12.78;102221.09;4993124;28;45460;-48
2023/04/04 10:06:04;;;;;;;;;7.20;4.40;;;;;34.84;13.98;102226.50;4995513;28;45512;-49
2023/04/04 10:08:30;;;;;;;;;4.20;4.20;;;;;35.32;13.26;102224.34;4995068;28;45302;-52
2023/04/04 10:10:58;;;;;;;;;7.60;4.60;;;;;35.47;13.54;102211.34;4995447;28;45538;-50
2023/04/04 10:13:28;;;;;;;;;6.60;4.40;;;;;35.49;12.11;102220.19;4995411;28;45580;-57
2023/04/04 10:15:56;;;;;;;;;6.20;4.00;;;;;35.65;12.80;102212.69;4995410;28;45985;-55
2023/04/04 10:18:26;;;;;;;;;8.00;5.40;;;;;35.59;12.25;102211.03;4995181;28;46386;-56
2023/04/04 10:20:56;;;;;;;;;4.40;4.00;;;;;35.68;12.39;102217.66;4995213;28;45460;-48
2023/04/04 10:23:23;;;;;;;;;6.20;5.00;;;;;35.65;12.55;102218.25;4997163;28;45465;-46
2023/04/04 10:25:49;;;;;;;;;5.00;5.00;;;;;35.55;13.02;102211.88;4996595;28;45507;-50
2023/04/04 10:28:19;;;;;;;;;6.75;4.25;;;;;35.70;12.46;102221.00;4996000;28;45944;-47
2023/04/04 10:30:59;;;;;;;;;6.60;5.00;;;;;35.94;11.38;102212.03;4994875;28;45393;-48
2023/04/04 10:33:39;;;;;;;;;5.80;4.00;;;;;35.89;11.58;102210.13;4994370;28;45445;-55
2023/04/04 10:36:07;;;;;;;;;6.60;5.40;;;;;36.03;12.24;102217.84;4994696;28;45816;-49
2023/04/04 10:38:41;;;;;;;;;7.20;6.80;;;;;36.18;12.98;102213.09;4994501;28;45814;-55
2023/04/04 10:41:09;;;;;;;;;4.80;4.80;;;;;36.29;11.15;102202.78;4994614;28;46388;-49
2023/04/04 10:43:40;;;;;;;;;4.60;4.60;;;;;36.54;11.10;102212.09;4995383;28;45716;-56
2023/04/04 10:46:12;;;;;;;;;6.60;6.00;;;;;36.67;11.14;102219.78;4995447;28;45346;-53
2023/04/04 10:48:40;;;;;;;;;4.00;4.00;;;;;36.92;12.70;102224.31;4994308;28;45464;-54
2023/04/04 10:51:06;;;;;;;;;8.20;5.20;;;;;36.95;11.84;102219.03;4994871;28;45444;-47
2023/04/04 10:53:32;;;;;;;;;4.50;4.50;;;;;36.84;12.47;102217.44;4994863;28;45489;-47
2023/04/04 10:56:02;;;;;;;;;7.60;3.40;;;;;36.67;11.16;102212.28;4995003;28;45428;-48
2023/04/04 10:58:28;;;;;;;;;5.40;5.00;;;;;36.23;11.88;102215.00;4994442;28;46408;-48
2023/04/04 11:00:55;;;;;;;;;5.75;4.75;;;;;36.12;11.40;102213.41;4994603;28;45430;-46
2023/04/04 11:03:21;;;;;;;;;4.40;4.40;;;;;36.20;11.74;102201.75;4994598;28;45436;-50
2023/04/04 11:05:46;;;;;;;;;4.80;4.60;;;;;36.12;11.78;102199.56;4994620;28;45511;-48
2023/04/04 11:08:23;;;;;;;;;3.50;3.50;;;;;35.46;10.85;102200.53;4994520;28;46209;-52
2023/04/04 11:10:50;;;;;;;;;6.60;4.80;;;;;34.92;12.01;102193.59;4994451;28;45504;-49
2023/04/04 11:13:22;;;;;;;;;7.00;4.40;;;;;34.83;11.38;102189.72;4994539;28;45488;-48
2023/04/04 11:16:15;;;;;;;;;7.60;4.80;;;;;34.85;12.69;102186.69;4994599;28;45679;-52
2023/04/04 11:18:44;;;;;;;;;3.80;3.80;;;;;34.63;11.94;102184.16;4993842;28;46262;-48
2023/04/04 11:21:18;;;;;;;;;4.60;3.80;;;;;34.59;11.24;102177.53;4994174;28;45410;-47
2023/04/04 11:23:47;;;;;;;;;5.20;4.00;;;;;34.48;11.88;102172.00;4976592;28;45619;-57
2023/04/04 11:26:15;;;;;;;;;5.00;5.00;;;;;34.21;12.09;102165.81;4994325;28;45529;-50